createdAt,value
2014-07-24T19:01:38.072Z,488
2014-07-24T19:01:56.275Z,459
2014-07-24T19:02:14.478Z,469
2014-07-24T19:02:32.683Z,466
2014-07-24T19:02:50.870Z,485
2014-07-24T19:03:09.074Z,458
2014-07-24T19:03:27.262Z,493
2014-07-24T19:03:45.465Z,453
2014-07-24T19:04:03.653Z,302
2014-07-24T19:04:21.858Z,319
2014-07-24T19:04:40.045Z,316
2014-07-24T19:04:58.248Z,314
2014-07-24T19:05:16.436Z,324
2014-07-24T19:05:34.641Z,320
2014-07-24T19:05:52.829Z,336
2014-07-24T19:06:11.032Z,340
2014-07-24T19:06:29.221Z,337
2014-07-24T19:06:47.424Z,331
2014-07-24T19:07:05.612Z,317
2014-07-24T19:07:23.817Z,343
2014-07-24T19:07:42.004Z,349
2014-07-24T19:08:00.208Z,326
2014-07-24T19:08:18.395Z,322
2014-07-24T19:08:36.600Z,343
2014-07-24T19:08:54.788Z,345
2014-07-24T19:09:13.006Z,328
2014-07-24T19:09:31.196Z,347
2014-07-24T19:09:49.399Z,328
2014-07-24T19:10:07.587Z,344
2014-07-24T19:10:25.776Z,340
2014-07-24T19:10:43.979Z,335
2014-07-24T19:11:02.167Z,318
2014-07-24T19:11:20.370Z,317
2014-07-24T19:11:38.559Z,315
2014-07-24T19:11:56.747Z,348
2014-07-24T19:12:14.950Z,339
2014-07-24T19:12:33.156Z,345
2014-07-24T19:12:51.359Z,342
2014-07-24T19:13:09.547Z,341
2014-07-24T19:13:27.734Z,329
2014-07-24T19:13:45.938Z,342
2014-07-24T19:14:04.673Z,339
2014-07-24T19:14:22.876Z,334
2014-07-24T19:14:41.065Z,315
2014-07-24T19:14:59.268Z,326
2014-07-24T19:15:17.456Z,334
2014-07-24T19:15:35.661Z,339
2014-07-24T19:15:53.849Z,328
2014-07-24T19:16:12.052Z,342
2014-07-24T19:16:30.255Z,341
2014-07-24T19:16:48.460Z,349
2014-07-24T19:17:06.663Z,345
2014-07-24T19:17:24.851Z,477
2014-07-24T19:17:43.056Z,509
2014-07-24T19:18:01.243Z,508
2014-07-24T19:18:19.446Z,511
2014-07-24T19:18:37.636Z,494
2014-07-24T19:18:55.823Z,477
2014-07-24T19:19:14.026Z,481
2014-07-24T19:19:32.230Z,517
2014-07-24T19:19:50.419Z,479
2014-07-24T19:20:08.607Z,497
2014-07-24T19:20:26.810Z,514
2014-07-24T19:20:45.015Z,484
2014-07-24T19:21:03.202Z,496
2014-07-24T19:21:21.405Z,517
2014-07-24T19:21:39.595Z,478
2014-07-24T19:21:57.798Z,483
2014-07-24T19:22:15.986Z,508
2014-07-24T19:22:34.189Z,510
2014-07-24T19:22:52.378Z,521
2014-07-24T19:23:10.581Z,492
2014-07-24T19:23:28.769Z,497
2014-07-24T19:23:46.974Z,502
2014-07-24T19:24:05.161Z,515
2014-07-24T19:24:23.365Z,515
2014-07-24T19:24:41.553Z,512
2014-07-24T19:24:59.756Z,523
2014-07-24T19:25:17.944Z,522
2014-07-24T19:25:36.194Z,486
2014-07-24T19:25:54.368Z,518
2014-07-24T19:26:12.555Z,494
2014-07-24T19:26:30.758Z,495
2014-07-24T19:26:48.949Z,521
2014-07-24T19:27:07.152Z,482
2014-07-24T19:27:25.339Z,508
2014-07-24T19:27:43.543Z,481
2014-07-24T19:28:01.731Z,518
2014-07-24T19:28:19.934Z,515
2014-07-24T19:28:38.137Z,501
2014-07-24T19:28:56.328Z,500
2014-07-24T19:29:14.531Z,512
2014-07-24T19:29:32.718Z,485
2014-07-24T19:29:50.922Z,521
2014-07-24T19:30:09.110Z,484
2014-07-24T19:30:27.313Z,480
2014-07-24T19:30:45.503Z,485
2014-07-24T19:31:03.706Z,501
2014-07-24T19:31:21.940Z,518
2014-07-24T19:31:40.143Z,524
2014-07-24T19:31:58.333Z,484
2014-07-24T19:32:16.536Z,511
2014-07-24T19:32:34.723Z,504
2014-07-24T19:32:52.928Z,485
2014-07-24T19:33:11.210Z,517
2014-07-24T19:33:29.413Z,486
2014-07-24T19:33:47.618Z,482
2014-07-24T19:34:05.805Z,523
2014-07-24T19:34:24.009Z,523
2014-07-24T19:34:42.196Z,512
2014-07-24T19:35:00.401Z,503
2014-07-24T19:35:18.589Z,478
2014-07-24T19:35:36.792Z,518
2014-07-24T19:35:54.981Z,482
2014-07-24T19:36:13.184Z,487
2014-07-24T19:36:31.372Z,497
2014-07-24T19:36:49.576Z,513
2014-07-24T19:37:07.764Z,522
2014-07-24T19:37:25.967Z,489
2014-07-24T19:37:48.842Z,517
2014-07-24T19:38:07.032Z,496
2014-07-24T19:38:25.235Z,482
2014-07-24T19:38:43.423Z,514
2014-07-24T19:39:01.627Z,503
2014-07-24T19:39:19.830Z,514
2014-07-24T19:39:38.018Z,501
2014-07-24T19:39:56.223Z,493
2014-07-24T19:40:14.410Z,486
2014-07-24T19:40:32.613Z,489
2014-07-24T19:40:50.801Z,502
2014-07-24T19:41:09.022Z,514
2014-07-24T19:41:27.209Z,488
2014-07-24T19:41:45.412Z,495
2014-07-24T19:42:03.603Z,491
2014-07-24T19:42:21.806Z,502
2014-07-24T19:42:39.993Z,509
2014-07-24T19:42:58.198Z,488
2014-07-24T19:43:16.402Z,516
2014-07-24T19:43:34.589Z,516
2014-07-24T19:43:52.792Z,509
2014-07-24T19:44:10.982Z,518
2014-07-24T19:44:29.185Z,518
2014-07-24T19:44:47.372Z,483
2014-07-24T19:45:05.577Z,488
2014-07-24T19:45:23.781Z,509
2014-07-24T19:45:41.984Z,478
2014-07-24T19:46:00.173Z,516
2014-07-24T19:46:18.376Z,508
2014-07-24T19:46:36.579Z,518
2014-07-24T19:46:54.767Z,506
2014-07-24T19:47:12.971Z,494
2014-07-24T19:47:31.159Z,487
2014-07-24T19:47:49.362Z,514
2014-07-24T19:48:07.551Z,504
2014-07-24T19:48:25.754Z,484
2014-07-24T19:48:43.942Z,524
2014-07-24T19:49:02.147Z,492
2014-07-24T19:49:20.350Z,479
2014-07-24T19:49:38.538Z,524
2014-07-24T19:49:56.741Z,482
2014-07-24T19:50:14.930Z,514
2014-07-24T19:50:33.133Z,496
2014-07-24T19:50:51.336Z,509
2014-07-24T19:51:09.526Z,521
2014-07-24T19:51:27.729Z,489
2014-07-24T19:51:45.948Z,504
2014-07-24T19:52:04.122Z,518
2014-07-24T19:52:22.309Z,497
2014-07-24T19:52:40.512Z,480
2014-07-24T19:52:58.715Z,507
2014-07-24T19:53:16.905Z,482
2014-07-24T19:53:35.108Z,497
2014-07-24T19:53:53.311Z,516
2014-07-24T19:54:11.501Z,502
2014-07-24T19:54:29.704Z,488
2014-07-24T19:54:47.907Z,518
2014-07-24T19:55:06.096Z,478
2014-07-24T19:55:24.315Z,517
2014-07-24T19:55:42.503Z,523
2014-07-24T19:56:00.706Z,518
2014-07-24T19:56:18.895Z,485
2014-07-24T19:56:37.098Z,478
2014-07-24T19:56:55.286Z,520
2014-07-24T19:57:13.475Z,503
2014-07-24T19:57:31.679Z,503
2014-07-24T19:57:49.866Z,492
2014-07-24T19:58:08.069Z,0
2014-07-24T21:46:56.731Z,0
2014-07-24T21:47:14.919Z,0
2014-07-24T21:47:33.124Z,0
2014-07-24T21:47:51.311Z,0
2014-07-24T21:48:09.499Z,0
2014-07-24T21:48:27.688Z,0
2014-07-24T21:48:45.892Z,0
2014-07-24T21:49:04.079Z,0
2014-07-24T21:49:22.269Z,0
2014-07-24T21:49:40.456Z,0
2014-07-24T21:49:58.644Z,0
2014-07-24T21:50:16.847Z,0
2014-07-24T21:50:35.036Z,0
2014-07-24T21:50:53.224Z,0
2014-07-24T21:51:11.411Z,0
2014-07-24T21:51:29.601Z,0
2014-07-24T21:51:47.788Z,0
2014-07-24T21:52:05.976Z,0
2014-07-24T21:52:24.165Z,0
2014-07-24T21:52:42.353Z,0
2014-07-24T21:53:00.540Z,0
2014-07-24T21:53:18.745Z,0
2014-07-24T21:53:36.933Z,0
2014-07-24T21:53:55.120Z,0
2014-07-24T21:54:13.308Z,0
2014-07-24T21:54:31.496Z,0
2014-07-24T21:54:49.699Z,0
2014-07-24T21:55:07.887Z,0
2014-07-24T21:55:26.076Z,0
2014-07-24T21:55:44.264Z,0
2014-07-24T21:56:02.451Z,0
2014-07-24T21:56:20.641Z,0
2014-07-24T21:56:38.844Z,0
2014-07-24T21:56:57.032Z,0
2014-07-24T21:57:15.219Z,0
2014-07-24T21:57:33.409Z,0
2014-07-24T21:57:51.596Z,0
2014-07-24T21:58:09.799Z,0
2014-07-24T21:58:27.990Z,0
2014-07-24T21:58:46.177Z,0
2014-07-24T21:59:04.365Z,0
2014-07-24T21:59:22.554Z,0
2014-07-24T21:59:40.742Z,0
2014-07-24T21:59:58.945Z,0
2014-07-24T22:00:17.132Z,0
2014-07-24T22:00:35.322Z,0
2014-07-24T22:00:53.509Z,0
2014-07-24T22:01:11.697Z,0
2014-07-24T22:01:29.886Z,0
2014-07-24T22:01:48.089Z,0
2014-07-24T22:02:06.277Z,0
2014-07-24T22:02:24.465Z,0
2014-07-24T22:02:42.653Z,0
2014-07-24T22:03:00.840Z,0
2014-07-24T22:03:19.028Z,0
2014-07-24T22:03:37.233Z,0
2014-07-24T22:03:55.421Z,0
2014-07-24T22:04:13.608Z,0
2014-07-24T22:04:31.798Z,0
2014-07-24T22:04:49.985Z,0
2014-07-24T22:05:08.173Z,0
2014-07-24T22:05:26.378Z,0
2014-07-24T22:05:44.565Z,0
2014-07-24T22:06:02.753Z,0
2014-07-24T22:06:20.940Z,0
2014-07-24T22:06:39.143Z,0
2014-07-24T22:06:57.330Z,0
2014-07-24T22:07:15.518Z,0
2014-07-24T22:07:33.745Z,0
2014-07-24T22:07:51.948Z,0
2014-07-24T22:08:10.136Z,0
2014-07-24T22:08:28.364Z,0
2014-07-24T22:08:46.552Z,0
2014-07-24T22:09:04.739Z,0
2014-07-24T22:09:22.927Z,0
2014-07-24T22:09:41.155Z,0
2014-07-24T22:09:59.343Z,0
2014-07-24T22:10:17.530Z,0
2014-07-24T22:10:35.773Z,0
2014-07-24T22:10:53.961Z,0
2014-07-24T22:11:12.148Z,0
2014-07-24T22:11:30.384Z,0
2014-07-24T22:11:48.571Z,0
2014-07-24T22:12:06.759Z,0
2014-07-24T22:12:24.946Z,0
2014-07-24T22:12:43.150Z,0
2014-07-24T22:13:01.353Z,0
2014-07-24T22:13:19.540Z,0
2014-07-24T22:13:37.744Z,0
2014-07-24T22:13:55.931Z,0
2014-07-24T22:14:14.119Z,0
2014-07-24T22:14:32.322Z,0
2014-07-24T22:14:50.510Z,0
2014-07-24T22:15:08.713Z,0
2014-07-24T22:15:26.900Z,0
2014-07-24T22:15:45.103Z,0
2014-07-24T22:16:03.290Z,0
2014-07-24T22:16:21.478Z,0
2014-07-24T22:16:39.694Z,0
2014-07-24T22:16:57.881Z,0
2014-07-24T22:17:16.069Z,0
2014-07-24T22:17:34.263Z,0
2014-07-24T22:17:52.467Z,0
2014-07-24T22:18:10.654Z,0
2014-07-24T22:18:28.842Z,0
2014-07-24T22:18:47.036Z,0
2014-07-24T22:19:05.224Z,0
2014-07-24T22:19:23.411Z,0
2014-07-24T22:19:41.621Z,0
2014-07-24T22:19:59.809Z,0
2014-07-24T22:20:17.996Z,0
2014-07-24T22:20:36.191Z,0
2014-07-24T22:20:54.394Z,0
2014-07-24T22:21:12.581Z,0
2014-07-24T22:21:30.769Z,0
2014-07-24T22:21:48.961Z,0
2014-07-24T22:22:07.149Z,0
2014-07-24T22:22:25.336Z,0
2014-07-24T22:22:43.543Z,0
2014-07-24T22:23:01.731Z,0
2014-07-24T22:23:19.918Z,0
2014-07-24T22:23:38.109Z,0
2014-07-24T22:23:56.296Z,0
2014-07-24T22:24:14.484Z,0
2014-07-24T22:24:32.671Z,0
2014-07-24T22:24:50.878Z,0
2014-07-24T22:25:09.065Z,0
2014-07-24T22:25:27.253Z,0
2014-07-24T22:25:45.444Z,0
2014-07-24T22:26:03.632Z,0
2014-07-24T22:26:21.819Z,0
2014-07-24T22:26:40.007Z,0
2014-07-24T22:26:58.197Z,0
2014-07-24T22:27:16.400Z,0
2014-07-24T22:27:34.588Z,0
2014-07-24T22:27:52.778Z,0
2014-07-24T22:28:10.966Z,0
2014-07-24T22:28:29.169Z,0
2014-07-24T22:28:47.359Z,0
2014-07-24T22:29:05.547Z,0
2014-07-24T22:29:23.734Z,0
2014-07-24T22:29:41.922Z,0
2014-07-24T22:30:00.111Z,0
2014-07-24T22:30:18.299Z,0
2014-07-24T22:30:36.486Z,0
2014-07-24T22:30:54.692Z,0
2014-07-24T22:31:12.880Z,0
2014-07-24T22:31:31.333Z,0
2014-07-24T22:31:49.523Z,0
2014-07-24T22:32:07.710Z,0
2014-07-24T22:32:25.898Z,0
2014-07-24T22:32:44.085Z,0
2014-07-24T22:33:02.275Z,0
2014-07-24T22:33:20.493Z,0
2014-07-24T22:33:38.665Z,0
2014-07-24T22:33:56.855Z,0
2014-07-24T22:34:15.042Z,0
2014-07-24T22:34:33.230Z,0
2014-07-24T22:34:51.417Z,0
2014-07-24T22:35:09.608Z,0
2014-07-24T22:35:27.795Z,0
2014-07-24T22:35:45.983Z,0
2014-07-24T22:36:04.172Z,0
2014-07-24T22:36:22.360Z,0
2014-07-24T22:36:40.563Z,0
2014-07-24T22:36:58.750Z,0
2014-07-24T22:37:16.939Z,0
2014-07-24T22:37:35.126Z,0
2014-07-24T22:37:53.314Z,0
2014-07-24T22:38:11.504Z,0
2014-07-24T22:38:29.692Z,0
2014-07-24T22:38:47.879Z,0
2014-07-24T22:39:06.084Z,0
2014-07-24T22:39:24.272Z,0
2014-07-24T22:39:42.459Z,0
2014-07-24T22:40:00.647Z,0
2014-07-24T22:40:18.835Z,0
2014-07-24T22:40:37.023Z,0
2014-07-24T22:40:55.226Z,0
2014-07-24T22:41:13.416Z,0
2014-07-24T22:41:31.603Z,0
2014-07-24T22:41:49.806Z,0
2014-07-24T22:42:07.996Z,0
2014-07-24T22:42:26.183Z,0
2014-07-24T22:42:44.371Z,0
2014-07-24T22:43:02.558Z,0
2014-07-24T22:43:20.748Z,0
2014-07-24T22:43:38.935Z,0
2014-07-24T22:43:57.123Z,0
2014-07-24T22:44:15.328Z,0
2014-07-24T22:44:33.515Z,0
2014-07-24T22:44:51.703Z,0
2014-07-24T22:45:09.892Z,0
2014-07-24T22:45:28.080Z,0
2014-07-24T22:45:46.267Z,0
2014-07-24T22:46:04.470Z,0
2014-07-24T22:46:22.660Z,0
2014-07-24T22:46:40.847Z,0
2014-07-24T22:46:59.035Z,0
2014-07-24T22:47:17.223Z,0
2014-07-24T22:47:35.411Z,0
2014-07-24T22:47:53.598Z,0
2014-07-24T22:48:11.805Z,0
2014-07-24T22:48:29.992Z,0
2014-07-24T22:48:48.180Z,0
2014-07-24T22:49:06.367Z,0
2014-07-24T22:49:24.572Z,0
2014-07-24T22:49:42.760Z,0
2014-07-24T22:50:00.947Z,0
2014-07-24T22:50:19.137Z,0
2014-07-24T22:50:37.324Z,0
2014-07-24T22:50:55.512Z,0
2014-07-24T22:51:13.717Z,0
2014-07-24T22:51:31.904Z,0
2014-07-24T22:51:50.092Z,0
2014-07-24T22:52:08.279Z,0
2014-07-24T22:52:26.469Z,0
2014-07-24T22:52:44.656Z,0
2014-07-24T22:53:02.844Z,0
2014-07-24T22:53:21.049Z,0
2014-07-24T22:53:39.236Z,0
2014-07-24T22:53:57.424Z,0
2014-07-24T22:54:15.611Z,0
2014-07-24T22:54:33.800Z,0
2014-07-24T22:54:51.987Z,0
2014-07-24T22:55:10.175Z,0
2014-07-24T22:55:28.365Z,0
2014-07-24T22:55:46.553Z,0
2014-07-24T22:56:04.756Z,0
2014-07-24T22:56:22.945Z,0
2014-07-24T22:56:41.132Z,0
2014-07-24T22:56:59.320Z,0
2014-07-24T22:57:17.507Z,0
2014-07-24T22:57:35.697Z,0
2014-07-24T22:57:53.884Z,0
2014-07-24T22:58:12.087Z,0
2014-07-24T22:58:30.277Z,0
2014-07-24T22:58:48.464Z,0
2014-07-24T22:59:06.652Z,0
2014-07-24T22:59:24.841Z,0
2014-07-24T22:59:43.029Z,0
2014-07-24T23:00:01.232Z,0
2014-07-24T23:00:19.421Z,0
2014-07-24T23:00:37.609Z,0
2014-07-24T23:00:55.796Z,0
2014-07-24T23:01:13.984Z,0
2014-07-24T23:01:32.173Z,0
2014-07-24T23:01:50.376Z,0
2014-07-24T23:02:08.564Z,0
2014-07-24T23:02:26.753Z,0
2014-07-24T23:02:44.941Z,0
2014-07-24T23:03:03.128Z,0
2014-07-24T23:03:21.318Z,0
2014-07-24T23:03:39.505Z,0
2014-07-24T23:03:57.709Z,0
2014-07-24T23:04:15.896Z,0
2014-07-24T23:04:34.086Z,0
2014-07-24T23:04:52.273Z,0
2014-07-24T23:05:10.461Z,0
2014-07-24T23:05:28.650Z,0
2014-07-24T23:05:46.838Z,0
2014-07-24T23:06:05.041Z,0
2014-07-24T23:06:23.229Z,0
2014-07-24T23:06:41.417Z,0
2014-07-24T23:06:59.604Z,0
2014-07-24T23:07:17.792Z,0
2014-07-24T23:07:35.982Z,0
2014-07-24T23:07:54.170Z,0
2014-07-24T23:08:12.373Z,0
2014-07-24T23:08:30.562Z,0
2014-07-24T23:08:48.750Z,0
2014-07-24T23:09:06.937Z,0
2014-07-24T23:09:25.125Z,0
2014-07-24T23:09:43.314Z,0
2014-07-24T23:10:01.517Z,0
2014-07-24T23:10:19.705Z,0
2014-07-24T23:10:37.894Z,0
2014-07-24T23:10:56.082Z,0
2014-07-24T23:11:14.269Z,0
2014-07-24T23:11:32.459Z,0
2014-07-24T23:11:50.646Z,0
2014-07-24T23:12:08.834Z,0
2014-07-24T23:12:27.037Z,0
2014-07-24T23:12:45.227Z,0
2014-07-24T23:13:03.414Z,0
2014-07-24T23:13:21.602Z,0
2014-07-24T23:13:39.790Z,0
2014-07-24T23:13:57.993Z,0
2014-07-24T23:14:16.181Z,0
2014-07-24T23:14:34.370Z,0
2014-07-24T23:14:52.558Z,0
2014-07-24T23:15:10.745Z,0
2014-07-24T23:15:28.933Z,0
2014-07-24T23:15:47.139Z,0
2014-07-24T23:16:05.326Z,0
2014-07-24T23:16:23.514Z,0
2014-07-24T23:16:41.719Z,0
2014-07-24T23:16:59.906Z,0
2014-07-24T23:17:18.094Z,0
2014-07-24T23:17:36.283Z,0
2014-07-24T23:17:54.471Z,0
2014-07-24T23:18:12.658Z,0
2014-07-24T23:18:30.862Z,0
2014-07-24T23:18:49.050Z,0
2014-07-24T23:19:07.238Z,0
2014-07-24T23:19:25.425Z,0
2014-07-24T23:19:43.615Z,0
2014-07-24T23:20:01.802Z,0
2014-07-24T23:20:19.990Z,0
2014-07-24T23:20:38.179Z,0
2014-07-24T23:20:56.367Z,0
2014-07-24T23:21:14.554Z,0
2014-07-24T23:21:32.757Z,0
2014-07-24T23:21:50.947Z,0
2014-07-24T23:22:09.134Z,0
2014-07-24T23:22:27.322Z,0
2014-07-24T23:22:45.511Z,0
2014-07-24T23:23:03.699Z,0
2014-07-24T23:23:21.886Z,0
2014-07-24T23:23:40.091Z,0
2014-07-24T23:23:58.279Z,0
2014-07-24T23:24:16.466Z,0
2014-07-24T23:24:34.654Z,0
2014-07-24T23:24:52.843Z,0
2014-07-24T23:25:11.046Z,0
2014-07-24T23:25:29.234Z,0
2014-07-24T23:25:47.422Z,0
2014-07-24T23:26:05.610Z,0
2014-07-24T23:26:23.797Z,0
2014-07-24T23:26:41.988Z,0
2014-07-24T23:27:00.175Z,0
2014-07-24T23:27:18.363Z,0
2014-07-24T23:27:36.566Z,0
2014-07-24T23:27:54.756Z,0
2014-07-24T23:28:12.943Z,0
2014-07-24T23:28:31.131Z,0
2014-07-24T23:28:49.320Z,0
2014-07-24T23:29:07.508Z,0
2014-07-24T23:29:25.726Z,0
2014-07-24T23:29:43.900Z,0
2014-07-24T23:30:02.088Z,0
2014-07-24T23:30:20.275Z,0
2014-07-24T23:30:38.463Z,0
2014-07-24T23:30:56.652Z,0
2014-07-24T23:31:14.855Z,0
2014-07-24T23:31:33.043Z,0
2014-07-24T23:31:51.231Z,0
2014-07-24T23:32:09.419Z,0
2014-07-24T23:32:27.606Z,0
2014-07-24T23:32:45.797Z,0
2014-07-24T23:33:03.984Z,0
2014-07-24T23:33:22.187Z,0
2014-07-24T23:33:40.375Z,0
2014-07-24T23:33:58.563Z,0
2014-07-24T23:34:16.751Z,0
2014-07-24T23:34:34.938Z,0
2014-07-24T23:34:53.128Z,0
2014-07-24T23:35:11.315Z,0
2014-07-24T23:35:29.503Z,0
2014-07-24T23:35:47.692Z,0
2014-07-24T23:36:05.880Z,0
2014-07-24T23:36:24.083Z,0
2014-07-24T23:36:42.271Z,0
2014-07-24T23:37:00.460Z,0
2014-07-24T23:37:18.648Z,0
2014-07-24T23:37:36.835Z,0
2014-07-24T23:37:55.025Z,0
2014-07-24T23:38:13.228Z,0
2014-07-24T23:38:31.415Z,0
2014-07-24T23:38:49.605Z,0
2014-07-24T23:39:07.792Z,0
2014-07-24T23:39:25.980Z,0
2014-07-24T23:39:44.167Z,0
2014-07-24T23:40:02.357Z,0
2014-07-24T23:40:20.560Z,0
2014-07-24T23:40:38.747Z,0
2014-07-24T23:40:56.937Z,0
2014-07-24T23:41:15.124Z,0
2014-07-24T23:41:33.312Z,0
2014-07-24T23:41:51.501Z,0
2014-07-24T23:42:09.704Z,0
2014-07-24T23:42:27.892Z,0
2014-07-24T23:42:46.079Z,0
2014-07-24T23:43:04.269Z,0
2014-07-24T23:43:22.456Z,0
2014-07-24T23:43:40.660Z,0
2014-07-24T23:43:58.849Z,0
2014-07-24T23:44:17.037Z,0
2014-07-24T23:44:35.224Z,0
2014-07-24T23:44:53.412Z,0
2014-07-24T23:45:11.617Z,0
2014-07-24T23:45:29.804Z,0
2014-07-24T23:45:47.992Z,0
2014-07-24T23:46:06.181Z,0
2014-07-24T23:46:24.369Z,0
2014-07-24T23:46:42.556Z,0
2014-07-24T23:47:00.746Z,0
2014-07-24T23:47:18.933Z,0
2014-07-24T23:47:37.136Z,0
2014-07-24T23:47:55.324Z,0
2014-07-24T23:48:13.512Z,0
2014-07-24T23:48:31.700Z,0
2014-07-24T23:48:49.887Z,0
2014-07-24T23:49:08.092Z,0
2014-07-24T23:49:26.280Z,0
2014-07-24T23:49:44.467Z,0
2014-07-24T23:50:02.657Z,0
2014-07-24T23:50:20.844Z,0
2014-07-24T23:50:39.032Z,0
2014-07-24T23:50:57.219Z,0
2014-07-24T23:51:15.426Z,0
2014-07-24T23:51:33.613Z,0
2014-07-24T23:51:51.801Z,0
2014-07-24T23:52:09.989Z,0
2014-07-24T23:52:28.177Z,0
2014-07-24T23:52:46.364Z,0
2014-07-24T23:53:04.554Z,0
2014-07-24T23:53:22.757Z,0
2014-07-24T23:53:40.944Z,0
2014-07-24T23:53:59.132Z,0
2014-07-24T23:54:17.321Z,0
2014-07-24T23:54:35.509Z,0
2014-07-24T23:54:53.696Z,0
2014-07-24T23:55:11.901Z,0
2014-07-24T23:55:30.089Z,0
2014-07-24T23:55:48.276Z,0
2014-07-24T23:56:06.466Z,0
2014-07-24T23:56:24.653Z,0
2014-07-24T23:56:42.841Z,0
2014-07-24T23:57:01.028Z,0
2014-07-24T23:57:19.233Z,0
2014-07-24T23:57:37.421Z,0
2014-07-24T23:57:55.608Z,0
2014-07-24T23:58:13.799Z,0
2014-07-24T23:58:31.986Z,0
2014-07-24T23:58:50.174Z,0
2014-07-24T23:59:08.361Z,0
2014-07-24T23:59:26.550Z,0
2014-07-24T23:59:44.737Z,0
